Time;durP1;ratioP1;P1;durP2;ratioP2;P2;SDS_P1;SDS_P2;PMS_P1;PMS_P2;Temp;Humidity;BMP_temperature;BMP_pressure;BME280_temperature;BME280_humidity;BME280_pressure;Samples;Min_cycle;Max_cycle;Signal;HPM_P1;HPM_P2
2022/01/30 00:02:13;;;;;;;102.43;59.95;;;7.10;75.50;;;;;;5031973;28;20045;-75
2022/01/30 00:04:39;;;;;;;88.53;51.95;;;6.90;76.20;;;;;;5032478;28;20034;-76
2022/01/30 00:07:06;;;;;;;81.65;50.17;;;6.80;77.00;;;;;;5032071;28;20452;-75
2022/01/30 00:09:31;;;;;;;73.10;45.35;;;6.80;76.80;;;;;;5031675;28;20037;-75
2022/01/30 00:12:01;;;;;;;74.63;42.10;;;6.80;76.80;;;;;;5031722;28;20044;-74
2022/01/30 00:14:29;;;;;;;76.70;43.83;;;6.70;76.70;;;;;;5032349;28;20030;-75
2022/01/30 00:17:01;;;;;;;62.63;38.72;;;6.70;76.60;;;;;;5032262;28;20116;-75
2022/01/30 00:22:46;;;;;;;57.03;34.58;;;6.80;76.50;;;;;;5028873;28;20361;-75
2022/01/30 00:27:16;;;;;;;60.95;35.95;;;6.90;75.50;;;;;;5031354;28;20132;-75
2022/01/30 00:29:42;;;;;;;60.00;37.05;;;6.90;75.60;;;;;;5031153;28;20052;-76
2022/01/30 00:32:08;;;;;;;55.63;34.67;;;6.90;75.20;;;;;;5030857;28;20033;-75
2022/01/30 00:34:33;;;;;;;65.55;37.78;;;7.00;75.10;;;;;;5031162;28;20045;-76
2022/01/30 00:37:02;;;;;;;77.38;46.53;;;6.90;74.40;;;;;;5014074;28;20029;-75
2022/01/30 00:39:28;;;;;;;55.47;33.25;;;7.00;74.00;;;;;;5032271;28;20045;-76
2022/01/30 00:41:53;;;;;;;70.53;38.35;;;6.90;74.50;;;;;;5031805;28;20052;-75
2022/01/30 00:44:19;;;;;;;54.47;31.90;;;6.80;74.10;;;;;;5032658;28;20116;-75
2022/01/30 00:46:46;;;;;;;64.05;37.78;;;6.90;74.50;;;;;;5032178;28;20076;-75
2022/01/30 00:49:12;;;;;;;71.95;42.10;;;6.80;73.40;;;;;;5031920;28;20041;-76
2022/01/30 00:51:37;;;;;;;66.85;39.03;;;6.80;73.70;;;;;;5032040;28;20026;-75
2022/01/30 00:54:04;;;;;;;75.35;42.65;;;6.80;73.30;;;;;;5032409;28;20390;-76
2022/01/30 00:56:30;;;;;;;65.20;39.85;;;6.80;73.10;;;;;;5024248;28;20044;-76
2022/01/30 00:58:55;;;;;;;57.53;35.13;;;6.80;73.80;;;;;;5032586;28;20037;-76
2022/01/30 01:01:21;;;;;;;60.65;37.53;;;6.70;73.50;;;;;;5014150;28;20117;-76
2022/01/30 01:03:47;;;;;;;70.25;41.55;;;6.60;73.40;;;;;;5014109;28;20107;-76
2022/01/30 01:06:12;;;;;;;62.30;37.70;;;6.50;73.60;;;;;;5031878;28;20112;-76
2022/01/30 01:08:55;;;;;;;54.40;31.80;;;6.60;73.70;;;;;;5031092;28;20497;-76
2022/01/30 01:14:06;;;;;;;56.55;33.50;;;6.60;73.00;;;;;;5031919;28;20041;-76
2022/01/30 01:24:09;;;;;;;64.28;37.80;;;6.70;73.30;;;;;;5031566;28;20029;-76
2022/01/30 01:26:36;;;;;;;57.42;34.40;;;6.60;73.30;;;;;;5029720;28;20112;-76
2022/01/30 01:29:04;;;;;;;52.50;31.23;;;6.60;73.40;;;;;;5031063;28;20045;-75
2022/01/30 01:31:29;;;;;;;66.32;40.78;;;6.70;73.60;;;;;;5031099;28;20030;-75
2022/01/30 01:36:33;;;;;;;51.60;29.75;;;6.50;74.00;;;;;;5028070;28;20033;-76
2022/01/30 01:38:59;;;;;;;55.10;32.67;;;6.50;74.30;;;;;;5030849;28;20041;-76
2022/01/30 01:41:25;;;;;;;53.78;32.28;;;6.60;74.00;;;;;;5030406;28;20083;-76
2022/01/30 01:43:52;;;;;;;58.85;33.42;;;6.60;73.80;;;;;;5013249;28;20041;-77
2022/01/30 01:46:23;;;;;;;58.35;33.70;;;6.60;73.40;;;;;;5029534;28;20101;-76
2022/01/30 01:48:51;;;;;;;58.95;33.28;;;6.60;73.20;;;;;;5030030;28;20124;-76
2022/01/30 01:51:21;;;;;;;55.17;31.90;;;6.60;73.40;;;;;;5030376;28;20044;-76
2022/01/30 01:53:49;;;;;;;67.00;38.23;;;6.50;73.50;;;;;;5031059;28;20117;-76
2022/01/30 01:56:16;;;;;;;61.55;36.33;;;6.50;73.20;;;;;;5030232;28;20405;-76
2022/01/30 01:58:42;;;;;;;68.38;39.45;;;6.50;73.20;;;;;;5030848;28;20069;-76
2022/01/30 02:01:08;;;;;;;66.38;39.45;;;6.40;73.00;;;;;;5031580;28;20064;-76
2022/01/30 02:03:38;;;;;;;60.70;36.05;;;6.40;72.90;;;;;;5031446;28;20072;-76
2022/01/30 02:06:07;;;;;;;62.30;37.03;;;6.20;73.50;;;;;;5031152;28;20075;-76
2022/01/30 02:08:49;;;;;;;66.72;36.40;;;6.20;73.60;;;;;;5030234;28;20041;-76
2022/01/30 02:11:28;;;;;;;43.90;27.23;;;6.10;73.80;;;;;;5030793;28;20486;-76
2022/01/30 02:14:15;;;;;;;47.60;28.35;;;6.20;73.90;;;;;;5012359;28;20079;-77
2022/01/30 02:25:12;;;;;;;52.08;29.73;;;6.40;72.80;;;;;;5035439;28;20064;-76
2022/01/30 02:27:38;;;;;;;51.95;28.67;;;6.30;72.60;;;;;;5034428;28;20044;-76
2022/01/30 02:30:14;;;;;;;45.38;26.60;;;6.30;72.50;;;;;;5034514;28;20036;-76
2022/01/30 02:32:40;;;;;;;62.38;35.95;;;6.30;72.40;;;;;;5030117;28;20045;-75
2022/01/30 02:35:07;;;;;;;48.63;26.77;;;6.30;72.50;;;;;;5034582;28;20029;-75
2022/01/30 02:37:33;;;;;;;57.53;32.45;;;6.30;72.60;;;;;;5033161;28;20091;-76
2022/01/30 02:39:58;;;;;;;56.25;30.63;;;6.30;72.80;;;;;;5034381;28;20037;-76
2022/01/30 02:42:32;;;;;;;58.00;34.35;;;6.20;72.40;;;;;;5034286;28;20525;-75
2022/01/30 02:45:01;;;;;;;47.25;27.10;;;6.20;72.20;;;;;;5034988;28;20033;-76
2022/01/30 02:52:35;;;;;;;48.55;29.23;;;6.10;72.20;;;;;;5032988;28;20106;-75
2022/01/30 02:55:01;;;;;;;51.65;30.55;;;5.90;73.10;;;;;;5034378;28;20109;-75
2022/01/30 02:57:26;;;;;;;52.85;30.65;;;5.90;72.80;;;;;;5033474;28;20114;-75
2022/01/30 02:59:52;;;;;;;71.40;40.10;;;6.00;72.30;;;;;;5016701;28;20096;-75
2022/01/30 03:02:18;;;;;;;61.15;38.45;;;5.70;72.30;;;;;;5033426;28;20096;-75
2022/01/30 03:04:43;;;;;;;55.03;32.20;;;5.50;73.00;;;;;;5034190;28;20041;-75
2022/01/30 03:07:09;;;;;;;56.47;34.75;;;5.30;74.30;;;;;;5033776;28;20079;-75
2022/01/30 03:09:35;;;;;;;60.88;33.50;;;5.20;74.20;;;;;;5034474;28;20041;-75
2022/01/30 03:12:03;;;;;;;53.55;30.90;;;5.30;74.30;;;;;;5033772;28;20126;-75
2022/01/30 03:14:28;;;;;;;48.95;28.88;;;5.20;74.30;;;;;;5033609;28;20033;-76
2022/01/30 03:16:54;;;;;;;59.85;35.28;;;5.30;74.00;;;;;;5033605;28;20033;-76
2022/01/30 03:19:20;;;;;;;57.55;32.63;;;5.30;73.70;;;;;;5033207;28;20061;-75
2022/01/30 03:21:46;;;;;;;56.53;33.65;;;5.20;74.40;;;;;;5033394;28;21104;-75
2022/01/30 03:24:12;;;;;;;58.58;33.88;;;5.20;73.80;;;;;;5033574;28;20035;-75
2022/01/30 03:26:40;;;;;;;56.20;32.08;;;5.00;73.60;;;;;;5033214;28;20474;-75
2022/01/30 03:29:07;;;;;;;45.97;27.95;;;5.10;74.30;;;;;;5033588;28;20446;-75
2022/01/30 03:31:35;;;;;;;44.47;25.95;;;5.10;73.80;;;;;;5032744;28;20053;-75
2022/01/30 03:34:01;;;;;;;45.17;26.30;;;5.20;73.70;;;;;;5033569;28;20029;-75
2022/01/30 03:36:27;;;;;;;53.63;31.90;;;5.10;73.80;;;;;;5032044;28;20508;-75
2022/01/30 03:38:52;;;;;;;47.95;29.60;;;5.00;73.30;;;;;;5033625;28;20049;-75
2022/01/30 03:41:18;;;;;;;42.67;24.23;;;4.90;73.50;;;;;;5015591;28;20520;-75
2022/01/30 03:43:44;;;;;;;48.55;26.98;;;5.00;73.70;;;;;;5034022;28;20033;-76
2022/01/30 03:46:09;;;;;;;41.70;23.83;;;5.10;72.80;;;;;;5032181;28;20127;-75
2022/01/30 03:48:35;;;;;;;41.30;22.52;;;5.10;72.60;;;;;;5014669;28;20041;-76
2022/01/30 03:51:01;;;;;;;40.08;22.80;;;5.30;73.10;;;;;;5033190;28;20458;-75
2022/01/30 03:53:26;;;;;;;36.80;23.10;;;5.30;71.90;;;;;;5032901;28;20038;-76
2022/01/30 03:55:52;;;;;;;39.15;22.45;;;5.40;71.40;;;;;;5015195;28;20029;-76
2022/01/30 03:58:19;;;;;;;34.78;19.65;;;5.50;71.00;;;;;;5032509;28;20041;-76
2022/01/30 04:00:45;;;;;;;48.92;28.23;;;5.50;71.20;;;;;;5033222;28;20059;-76
2022/01/30 04:03:11;;;;;;;34.58;21.20;;;5.40;70.60;;;;;;5021309;28;20485;-76
2022/01/30 04:05:36;;;;;;;43.63;25.23;;;5.40;71.40;;;;;;5033057;28;20403;-76
2022/01/30 04:08:03;;;;;;;41.10;24.30;;;5.40;70.60;;;;;;5032555;28;20500;-76
2022/01/30 04:10:30;;;;;;;37.03;21.48;;;5.30;70.70;;;;;;5031965;28;20045;-76
2022/01/30 04:12:56;;;;;;;46.22;26.45;;;5.40;71.40;;;;;;5032544;28;20481;-76
2022/01/30 04:15:22;;;;;;;40.97;23.55;;;5.20;70.90;;;;;;5032717;28;20033;-76
2022/01/30 04:17:48;;;;;;;46.58;26.33;;;5.30;70.80;;;;;;5032938;28;20108;-76
2022/01/30 04:20:14;;;;;;;46.90;27.65;;;5.30;70.60;;;;;;5032392;28;20438;-75
2022/01/30 04:22:40;;;;;;;37.35;21.45;;;5.20;70.50;;;;;;5030650;28;20366;-75
2022/01/30 04:25:06;;;;;;;35.65;18.85;;;5.30;70.70;;;;;;5032662;28;20048;-75
2022/01/30 04:27:31;;;;;;;41.25;25.20;;;5.40;70.60;;;;;;5032797;28;21117;-75
2022/01/30 04:29:57;;;;;;;44.08;26.33;;;5.40;69.90;;;;;;5032588;28;20454;-75
2022/01/30 04:32:26;;;;;;;38.72;23.40;;;5.50;70.00;;;;;;5031848;28;20043;-75
2022/01/30 04:34:56;;;;;;;47.03;26.27;;;5.40;69.80;;;;;;5032370;28;20037;-75
2022/01/30 04:37:49;;;;;;;51.97;28.95;;;5.40;69.70;;;;;;5031652;28;20403;-75
2022/01/30 04:40:43;;;;;;;46.80;25.92;;;5.00;70.10;;;;;;5032041;28;20037;-75
2022/01/30 04:56:56;;;;;;;39.05;22.45;;;4.90;71.40;;;;;;5025441;28;20072;-75
2022/01/30 05:07:41;;;;;;;42.58;25.73;;;4.80;70.80;;;;;;5031756;28;20046;-75
2022/01/30 05:10:07;;;;;;;42.63;24.83;;;4.80;71.00;;;;;;5031440;28;20049;-75
2022/01/30 05:12:43;;;;;;;40.20;22.73;;;4.80;70.90;;;;;;5032031;28;20044;-75
2022/01/30 05:15:09;;;;;;;37.00;20.67;;;4.70;71.70;;;;;;5032143;28;20516;-75
2022/01/30 05:17:35;;;;;;;37.42;21.17;;;4.90;71.10;;;;;;5032151;28;20038;-75
2022/01/30 05:20:02;;;;;;;34.28;19.73;;;4.90;71.00;;;;;;5031329;28;20500;-75
2022/01/30 05:22:28;;;;;;;41.08;23.17;;;5.00;71.00;;;;;;5031444;28;20490;-75
2022/01/30 05:24:53;;;;;;;38.13;21.52;;;5.00;70.60;;;;;;5031739;28;20056;-76
2022/01/30 05:27:20;;;;;;;38.13;21.15;;;4.90;70.70;;;;;;5013956;28;20045;-77
2022/01/30 05:29:46;;;;;;;44.75;24.88;;;5.00;70.70;;;;;;5032217;28;20429;-77
2022/01/30 05:32:12;;;;;;;41.70;23.55;;;4.90;70.00;;;;;;5031488;28;20037;-76
2022/01/30 05:34:38;;;;;;;44.75;25.30;;;4.80;70.80;;;;;;5031484;28;20527;-76
2022/01/30 05:37:08;;;;;;;41.47;22.40;;;4.70;71.60;;;;;;5031158;28;20030;-76
2022/01/30 05:39:34;;;;;;;44.90;26.48;;;4.80;72.10;;;;;;5026642;28;20505;-76
2022/01/30 05:42:00;;;;;;;43.65;27.20;;;4.70;72.70;;;;;;5031653;28;20050;-76
2022/01/30 05:44:40;;;;;;;46.95;27.00;;;4.60;73.30;;;;;;5031993;28;20486;-76
2022/01/30 05:47:11;;;;;;;53.33;31.17;;;4.50;73.90;;;;;;5030959;28;20042;-76
2022/01/30 05:49:37;;;;;;;48.42;27.17;;;4.30;74.40;;;;;;5031194;28;20037;-76
2022/01/30 05:52:03;;;;;;;54.75;31.85;;;4.30;75.40;;;;;;5031191;28;20041;-75
2022/01/30 05:54:29;;;;;;;48.45;27.65;;;4.20;75.30;;;;;;5014435;28;20084;-75
2022/01/30 05:56:54;;;;;;;70.10;36.17;;;4.20;76.00;;;;;;5035311;28;20064;-75
2022/01/30 05:59:20;;;;;;;48.17;28.60;;;4.20;75.90;;;;;;5035490;28;20470;-75
2022/01/30 06:01:45;;;;;;;54.97;32.30;;;4.00;76.60;;;;;;5034912;28;20046;-75
2022/01/30 06:04:11;;;;;;;48.13;27.95;;;4.00;76.90;;;;;;5034645;28;20339;-75
2022/01/30 06:06:37;;;;;;;52.40;31.38;;;4.00;76.80;;;;;;5035662;28;20045;-75
2022/01/30 06:09:19;;;;;;;43.33;25.13;;;4.00;77.30;;;;;;5034842;28;20026;-75
2022/01/30 06:11:49;;;;;;;60.72;30.02;;;4.10;77.30;;;;;;5030996;28;20376;-74
2022/01/30 06:14:19;;;;;;;57.35;33.80;;;4.00;77.90;;;;;;5034720;28;20045;-75
2022/01/30 06:16:45;;;;;;;45.60;27.27;;;4.00;77.60;;;;;;5035897;28;20044;-75
2022/01/30 06:19:10;;;;;;;39.35;22.98;;;4.00;78.00;;;;;;5034449;28;20038;-75
2022/01/30 06:21:36;;;;;;;57.20;32.80;;;4.10;77.40;;;;;;5035146;28;20042;-75
2022/01/30 06:24:02;;;;;;;52.67;29.25;;;4.30;76.80;;;;;;5032161;28;20477;-74
2022/01/30 06:26:28;;;;;;;50.03;29.33;;;4.10;77.20;;;;;;5034463;28;20393;-75
2022/01/30 06:28:54;;;;;;;60.25;33.60;;;4.00;78.00;;;;;;5035014;28;20366;-74
2022/01/30 06:31:19;;;;;;;50.60;28.98;;;4.00;77.50;;;;;;5034660;28;20048;-75
2022/01/30 06:33:45;;;;;;;64.72;35.03;;;3.90;77.80;;;;;;5033670;28;21107;-75
2022/01/30 06:36:11;;;;;;;58.42;35.38;;;4.00;77.90;;;;;;5034818;28;20436;-75
2022/01/30 06:38:37;;;;;;;61.08;34.10;;;3.90;78.00;;;;;;5016593;28;20038;-76
2022/01/30 06:41:02;;;;;;;56.15;31.83;;;3.90;77.80;;;;;;5034484;28;20058;-75
2022/01/30 06:43:28;;;;;;;50.63;29.90;;;4.00;78.10;;;;;;5034412;28;20050;-75
2022/01/30 06:45:55;;;;;;;67.93;36.05;;;4.00;78.00;;;;;;5030419;28;20485;-77
2022/01/30 06:48:21;;;;;;;61.85;35.67;;;3.90;78.00;;;;;;5034283;28;20056;-76
2022/01/30 06:50:47;;;;;;;54.63;32.25;;;3.90;78.50;;;;;;5029580;28;20149;-76
2022/01/30 06:53:13;;;;;;;57.40;33.53;;;3.80;78.80;;;;;;5017238;28;20445;-77
2022/01/30 06:55:42;;;;;;;63.10;35.50;;;3.80;78.90;;;;;;5034077;28;20088;-76
2022/01/30 06:58:12;;;;;;;60.78;34.63;;;3.80;79.00;;;;;;5033894;28;20046;-76
2022/01/30 07:00:38;;;;;;;;;;;3.80;79.40;;;;;;5034590;28;20116;-76
2022/01/30 07:03:04;;;;;;;55.75;32.72;;;3.90;79.00;;;;;;5034185;28;19953;-76
2022/01/30 07:05:30;;;;;;;68.75;38.28;;;3.90;79.10;;;;;;5034111;28;20490;-76
2022/01/30 07:07:56;;;;;;;55.28;32.17;;;3.80;78.90;;;;;;5034342;28;20446;-76
2022/01/30 07:10:21;;;;;;;63.45;37.20;;;3.80;79.30;;;;;;5014106;28;20037;-76
2022/01/30 07:12:47;;;;;;;54.83;29.95;;;3.90;78.90;;;;;;5034667;28;20033;-76
2022/01/30 07:15:14;;;;;;;70.50;40.00;;;4.00;78.80;;;;;;5033990;28;20073;-75
2022/01/30 07:17:40;;;;;;;70.82;39.45;;;4.00;78.50;;;;;;5033002;28;20022;-75
2022/01/30 07:20:06;;;;;;;60.63;32.88;;;3.90;79.00;;;;;;5032825;28;20407;-76
2022/01/30 07:22:49;;;;;;;64.38;34.65;;;4.00;79.10;;;;;;5033752;28;20030;-77
2022/01/30 07:25:23;;;;;;;63.33;34.63;;;4.00;78.90;;;;;;5010401;28;20041;-77
2022/01/30 07:27:48;;;;;;;67.35;37.25;;;4.00;78.60;;;;;;5032751;28;20144;-77
2022/01/30 07:30:14;;;;;;;63.88;34.58;;;4.00;78.70;;;;;;5020773;28;20136;-77
2022/01/30 07:32:41;;;;;;;63.22;35.42;;;4.00;78.60;;;;;;5021852;28;20025;-77
2022/01/30 07:35:07;;;;;;;52.53;28.63;;;4.00;78.30;;;;;;5027366;28;20466;-76
2022/01/30 07:37:34;;;;;;;53.92;29.70;;;4.10;78.40;;;;;;5033478;28;20045;-76
2022/01/30 07:40:02;;;;;;;56.92;34.00;;;4.20;78.10;;;;;;5031856;28;20116;-76
2022/01/30 07:42:28;;;;;;;57.80;34.53;;;4.30;78.40;;;;;;5027667;28;20033;-78
2022/01/30 07:44:54;;;;;;;58.92;32.30;;;4.20;78.20;;;;;;5033132;28;20042;-77
2022/01/30 07:47:21;;;;;;;55.42;28.90;;;4.30;77.90;;;;;;5031858;28;20041;-77
2022/01/30 07:49:51;;;;;;;54.70;32.53;;;4.40;77.70;;;;;;5032535;28;20049;-78
2022/01/30 07:52:18;;;;;;;59.08;34.78;;;4.60;76.90;;;;;;5032738;28;20033;-77
2022/01/30 07:54:44;;;;;;;55.75;30.58;;;4.60;76.50;;;;;;5032216;28;20056;-79
2022/01/30 07:57:10;;;;;;;62.05;35.38;;;4.50;77.00;;;;;;5032390;28;20025;-81
2022/01/30 07:59:36;;;;;;;56.85;34.50;;;4.60;76.30;;;;;;5033015;28;20639;-81
2022/01/30 08:02:02;;;;;;;48.78;28.38;;;4.60;76.10;;;;;;5032899;28;20065;-82
2022/01/30 08:04:28;;;;;;;51.58;29.65;;;4.60;76.00;;;;;;5032367;28;20053;-80
2022/01/30 08:06:54;;;;;;;54.60;33.75;;;4.60;76.30;;;;;;5015061;28;20083;-81
2022/01/30 08:09:20;;;;;;;52.08;32.33;;;4.70;75.60;;;;;;5031544;28;20125;-79
2022/01/30 08:11:46;;;;;;;51.55;29.10;;;4.70;75.80;;;;;;5032805;28;20112;-80
2022/01/30 08:14:12;;;;;;;55.35;34.45;;;4.70;76.00;;;;;;5032248;28;20031;-78
2022/01/30 08:16:38;;;;;;;50.38;29.27;;;4.70;75.40;;;;;;5033410;28;20074;-78
2022/01/30 08:19:04;;;;;;;53.97;31.80;;;4.80;75.90;;;;;;5026407;28;20037;-78
2022/01/30 08:21:30;;;;;;;53.10;30.90;;;4.90;75.30;;;;;;5024781;28;21105;-78
2022/01/30 08:23:56;;;;;;;49.65;29.80;;;4.90;74.90;;;;;;5031436;28;20128;-78
2022/01/30 08:26:22;;;;;;;57.28;33.95;;;4.90;74.90;;;;;;5032162;28;20116;-78
2022/01/30 08:28:48;;;;;;;58.17;35.25;;;5.10;74.50;;;;;;5027591;28;20148;-79
2022/01/30 08:31:14;;;;;;;54.97;30.25;;;5.00;74.20;;;;;;5025303;28;20099;-79
2022/01/30 08:33:40;;;;;;;53.85;30.00;;;5.00;74.30;;;;;;5024840;28;20120;-80
2022/01/30 08:36:06;;;;;;;57.33;32.20;;;5.20;75.00;;;;;;5022197;28;20353;-80
2022/01/30 08:38:32;;;;;;;51.95;31.20;;;5.40;73.80;;;;;;5007090;28;20100;-78
2022/01/30 08:40:58;;;;;;;53.85;30.42;;;5.40;73.40;;;;;;5004916;28;20473;-77
2022/01/30 08:43:24;;;;;;;50.88;30.15;;;5.50;73.50;;;;;;5008776;28;20126;-78
2022/01/30 08:45:51;;;;;;;54.15;31.17;;;5.50;72.80;;;;;;5005642;28;20034;-77
2022/01/30 08:48:18;;;;;;;54.00;32.17;;;5.70;72.50;;;;;;5025518;28;20037;-78
2022/01/30 08:50:45;;;;;;;50.35;30.20;;;5.80;71.70;;;;;;5023479;28;20052;-77
2022/01/30 08:53:11;;;;;;;46.55;29.35;;;5.90;71.50;;;;;;5007267;28;20041;-78
2022/01/30 08:55:36;;;;;;;61.05;32.08;;;5.90;71.20;;;;;;5019908;28;20030;-78
2022/01/30 08:58:09;;;;;;;39.83;23.90;;;6.00;71.10;;;;;;5021653;28;20049;-78
2022/01/30 09:00:36;;;;;;;44.70;25.25;;;6.20;71.50;;;;;;5023399;28;20494;-77
2022/01/30 09:03:04;;;;;;;56.58;31.88;;;6.40;70.70;;;;;;5019358;28;20034;-78
2022/01/30 09:05:31;;;;;;;38.30;22.77;;;6.50;69.80;;;;;;5022291;28;20095;-78
2022/01/30 09:07:58;;;;;;;57.10;33.20;;;6.70;70.60;;;;;;5006760;28;20046;-79
2022/01/30 09:10:24;;;;;;;41.90;25.15;;;6.90;68.60;;;;;;5022615;28;20085;-79
2022/01/30 09:12:49;;;;;;;37.13;22.15;;;7.00;69.00;;;;;;5021940;28;20034;-79
2022/01/30 09:15:16;;;;;;;55.45;31.70;;;7.20;69.30;;;;;;5025998;28;20034;-79
2022/01/30 09:17:44;;;;;;;43.05;25.65;;;7.30;66.60;;;;;;5020941;28;20040;-78
2022/01/30 09:20:10;;;;;;;50.40;29.90;;;7.40;67.10;;;;;;5029006;28;20076;-79
2022/01/30 09:22:37;;;;;;;45.47;27.85;;;7.40;66.60;;;;;;5020745;28;20045;-79
2022/01/30 09:25:04;;;;;;;54.10;32.85;;;7.70;66.90;;;;;;5018960;28;20077;-78
2022/01/30 09:27:30;;;;;;;52.25;30.52;;;7.60;65.70;;;;;;5023286;28;20038;-77
2022/01/30 09:29:56;;;;;;;57.10;34.83;;;7.60;65.50;;;;;;5017349;28;20034;-78
2022/01/30 09:32:22;;;;;;;57.67;34.95;;;7.60;65.20;;;;;;5024257;28;20030;-78
2022/01/30 09:34:47;;;;;;;61.28;34.20;;;7.40;65.40;;;;;;5002683;28;20041;-79
2022/01/30 09:37:13;;;;;;;48.00;29.83;;;7.30;65.90;;;;;;5019839;28;20099;-78
2022/01/30 09:39:40;;;;;;;56.00;30.30;;;7.30;66.30;;;;;;5023593;28;20049;-78
2022/01/30 09:42:06;;;;;;;56.33;33.88;;;7.60;65.70;;;;;;5023809;28;20034;-78
2022/01/30 09:44:40;;;;;;;59.67;34.80;;;7.60;64.60;;;;;;5021320;28;20433;-78
2022/01/30 09:47:17;;;;;;;37.25;22.65;;;7.60;65.10;;;;;;5024122;28;20034;-78
2022/01/30 09:49:48;;;;;;;52.13;30.95;;;7.90;66.10;;;;;;5023544;28;20042;-78
2022/01/30 09:52:15;;;;;;;43.55;25.70;;;8.10;64.50;;;;;;5037023;28;20037;-79
2022/01/30 09:54:41;;;;;;;42.90;25.83;;;8.20;64.80;;;;;;5025686;28;20087;-78
2022/01/30 09:57:07;;;;;;;49.20;30.23;;;8.50;64.30;;;;;;5019800;28;20051;-79
2022/01/30 09:59:32;;;;;;;44.85;28.63;;;8.70;63.50;;;;;;5030364;28;20505;-79
2022/01/30 10:01:58;;;;;;;44.50;27.38;;;8.90;63.30;;;;;;5031918;28;20029;-80
2022/01/30 10:04:24;;;;;;;49.95;30.65;;;9.10;63.20;;;;;;5031842;28;20038;-80
2022/01/30 10:07:00;;;;;;;60.08;37.08;;;8.90;63.50;;;;;;5045482;28;20039;-80
2022/01/30 10:09:29;;;;;;;59.72;36.05;;;8.90;63.40;;;;;;5031783;28;20036;-80
2022/01/30 10:12:16;;;;;;;48.90;30.10;;;9.00;63.40;;;;;;5005681;28;20346;-79
2022/01/30 10:15:00;;;;;;;44.70;29.48;;;9.00;63.50;;;;;;5024868;28;20549;-79
2022/01/30 10:17:26;;;;;;;36.63;23.40;;;9.20;62.80;;;;;;5008996;28;20060;-79
2022/01/30 10:20:12;;;;;;;40.80;24.75;;;9.50;64.00;;;;;;5012174;28;20045;-81
2022/01/30 10:22:50;;;;;;;53.40;34.42;;;9.70;63.20;;;;;;5038192;28;20061;-80
2022/01/30 10:25:30;;;;;;;40.08;26.05;;;9.70;61.30;;;;;;5028801;28;20429;-81
2022/01/30 10:28:15;;;;;;;43.33;29.38;;;9.80;62.50;;;;;;5039901;28;20033;-80
2022/01/30 10:30:51;;;;;;;47.05;23.75;;;10.10;61.20;;;;;;5032852;28;20060;-80
2022/01/30 10:33:45;;;;;;;33.83;21.55;;;10.40;62.30;;;;;;5050990;28;20022;-82
2022/01/30 10:36:12;;;;;;;31.08;19.35;;;10.80;62.30;;;;;;5051286;28;20021;-81
2022/01/30 10:38:48;;;;;;;31.25;20.48;;;11.10;61.90;;;;;;5046961;28;20030;-79
2022/01/30 10:41:21;;;;;;;26.63;19.10;;;11.50;61.70;;;;;;5027393;28;20108;-79
2022/01/30 10:44:04;;;;;;;30.50;21.52;;;11.80;61.10;;;;;;5034633;28;20033;-79
2022/01/30 10:46:32;;;;;;;39.15;25.75;;;11.90;59.70;;;;;;5034278;28;20045;-79
2022/01/30 10:49:02;;;;;;;38.92;26.85;;;11.90;57.80;;;;;;5033452;28;20163;-79
2022/01/30 10:51:31;;;;;;;32.22;21.00;;;11.90;57.20;;;;;;5033166;28;20116;-79
2022/01/30 10:53:58;;;;;;;26.92;18.73;;;12.10;59.60;;;;;;5016538;28;20378;-78
2022/01/30 10:56:27;;;;;;;27.30;18.77;;;12.40;60.90;;;;;;5032957;28;20033;-79
2022/01/30 10:59:16;;;;;;;34.55;25.05;;;12.60;59.50;;;;;;5034499;28;20128;-79
2022/01/30 11:01:44;;;;;;;42.22;27.77;;;12.60;55.90;;;;;;5033283;28;20033;-79
2022/01/30 11:04:31;;;;;;;46.60;27.60;;;12.80;55.60;;;;;;5033028;28;20041;-79
2022/01/30 11:07:00;;;;;;;31.92;20.23;;;12.40;55.40;;;;;;5030319;28;20033;-80
2022/01/30 11:10:05;;;;;;;25.75;18.10;;;12.30;57.20;;;;;;5033665;28;20168;-79
2022/01/30 11:12:41;;;;;;;30.60;21.17;;;12.60;58.40;;;;;;5031281;28;20096;-79
2022/01/30 11:17:44;;;;;;;34.10;23.75;;;12.60;55.90;;;;;;5033770;28;20094;-80
2022/01/30 11:20:14;;;;;;;25.38;18.00;;;12.30;56.70;;;;;;5033139;28;20522;-80
2022/01/30 11:22:44;;;;;;;32.97;22.55;;;12.40;58.40;;;;;;5027928;28;20048;-79
2022/01/30 11:25:12;;;;;;;;;;;11.60;56.80;;;;;;5034418;28;20041;-78
2022/01/30 11:27:40;;;;;;;20.20;12.20;;;11.60;58.40;;;;;;5010872;28;20304;-79
2022/01/30 11:30:07;;;;;;;17.33;12.30;;;12.00;59.30;;;;;;5033969;28;20112;-79
2022/01/30 11:32:32;;;;;;;34.15;23.45;;;12.60;59.00;;;;;;5034125;28;20390;-78
2022/01/30 11:34:58;;;;;;;24.50;17.05;;;12.70;55.60;;;;;;5032599;28;20034;-80
2022/01/30 11:37:29;;;;;;;35.20;23.65;;;13.00;57.70;;;;;;5015308;28;20060;-80
2022/01/30 11:39:56;;;;;;;33.00;21.98;;;13.10;54.30;;;;;;5029228;28;20429;-81
2022/01/30 11:42:44;;;;;;;45.97;28.08;;;12.70;56.00;;;;;;5032938;28;20352;-80
2022/01/30 11:45:16;;;;;;;34.50;23.95;;;12.00;56.20;;;;;;5034324;28;20034;-80
2022/01/30 11:47:46;;;;;;;24.00;17.35;;;11.70;57.40;;;;;;5026421;28;20038;-80
2022/01/30 11:50:12;;;;;;;23.88;16.92;;;12.20;58.90;;;;;;5027086;28;20034;-80
2022/01/30 11:52:51;;;;;;;36.30;25.15;;;12.90;58.50;;;;;;5028238;28;20596;-80
2022/01/30 11:55:50;;;;;;;44.03;26.52;;;13.20;54.40;;;;;;5033947;28;20030;-80
2022/01/30 11:58:32;;;;;;;39.20;26.52;;;13.10;54.00;;;;;;5021860;28;20124;-80
2022/01/30 12:01:16;;;;;;;35.67;25.30;;;12.90;54.40;;;;;;5031842;28;20480;-80
2022/01/30 12:04:09;;;;;;;29.13;21.42;;;13.50;52.90;;;;;;5033216;28;20033;-80
2022/01/30 12:06:41;;;;;;;30.15;20.42;;;13.90;52.00;;;;;;5030873;28;20048;-80
2022/01/30 12:09:16;;;;;;;31.42;22.02;;;14.50;52.50;;;;;;5025420;28;20044;-80
2022/01/30 12:11:47;;;;;;;32.70;22.77;;;15.50;49.80;;;;;;5027862;28;20059;-80
2022/01/30 12:14:22;;;;;;;27.73;18.65;;;16.10;46.80;;;;;;5015295;28;20030;-81
2022/01/30 12:16:57;;;;;;;33.97;22.60;;;16.70;46.70;;;;;;5033115;28;20041;-80
2022/01/30 12:19:45;;;;;;;45.65;30.05;;;17.20;43.60;;;;;;5029631;28;20037;-80
2022/01/30 12:22:17;;;;;;;28.83;20.25;;;16.80;42.90;;;;;;5025284;28;20034;-81
2022/01/30 12:25:13;;;;;;;33.38;23.58;;;17.30;44.80;;;;;;5027171;28;20045;-81
2022/01/30 12:27:55;;;;;;;43.05;27.95;;;17.80;42.10;;;;;;5032517;28;20041;-81
2022/01/30 12:30:42;;;;;;;29.83;21.48;;;17.90;41.20;;;;;;5028348;28;20057;-81
2022/01/30 12:33:34;;;;;;;36.63;25.33;;;17.90;41.70;;;;;;5028596;28;20386;-81
2022/01/30 12:36:11;;;;;;;29.10;21.77;;;17.80;40.70;;;;;;5029894;28;20108;-81
2022/01/30 12:38:37;;;;;;;38.80;28.77;;;17.80;42.70;;;;;;5014347;28;20116;-81
2022/01/30 12:41:23;;;;;;;42.25;30.25;;;17.40;40.90;;;;;;5013005;28;20153;-81
2022/01/30 12:43:54;;;;;;;39.80;29.35;;;16.40;42.70;;;;;;5017581;28;20113;-81
2022/01/30 12:46:23;;;;;;;37.63;27.38;;;15.60;44.90;;;;;;5023901;28;20044;-79
2022/01/30 12:49:09;;;;;;;34.47;24.48;;;15.30;45.80;;;;;;5024727;28;20034;-81
2022/01/30 12:51:37;;;;;;;35.65;25.80;;;15.60;45.30;;;;;;5023857;28;20046;-80
2022/01/30 12:54:03;;;;;;;29.98;21.00;;;16.40;44.60;;;;;;5005431;28;20124;-80
2022/01/30 12:56:29;;;;;;;40.92;28.65;;;16.90;44.10;;;;;;5005748;28;20037;-80
2022/01/30 12:59:06;;;;;;;34.38;23.67;;;16.90;42.40;;;;;;5011454;28;20046;-80
2022/01/30 13:01:32;;;;;;;38.90;26.45;;;16.90;42.80;;;;;;5028133;28;20095;-80
2022/01/30 13:04:09;;;;;;;38.55;26.60;;;16.70;42.30;;;;;;5032241;28;20025;-80
2022/01/30 13:06:38;;;;;;;34.60;24.17;;;16.10;43.40;;;;;;5031594;28;20056;-80
2022/01/30 13:09:04;;;;;;;43.35;27.98;;;16.20;43.50;;;;;;5028368;28;20033;-79
2022/01/30 13:11:30;;;;;;;39.08;28.10;;;16.00;43.20;;;;;;5023266;28;20137;-79
2022/01/30 13:14:07;;;;;;;36.25;24.13;;;16.30;42.00;;;;;;5027991;28;20041;-79
2022/01/30 13:16:40;;;;;;;43.30;28.38;;;16.50;41.90;;;;;;5025674;28;20052;-79
2022/01/30 13:19:09;;;;;;;30.80;21.45;;;16.90;40.90;;;;;;5022498;28;20399;-80
2022/01/30 13:21:36;;;;;;;30.15;21.05;;;17.20;41.60;;;;;;5004663;28;20045;-80
2022/01/30 13:24:04;;;;;;;28.08;20.08;;;17.70;40.90;;;;;;5005727;28;20561;-80
2022/01/30 13:26:36;;;;;;;27.30;20.35;;;18.00;39.40;;;;;;5002540;28;20042;-80
2022/01/30 13:29:05;;;;;;;28.75;20.23;;;18.20;38.90;;;;;;5025756;28;20056;-79
2022/01/30 13:31:32;;;;;;;29.37;20.77;;;18.20;39.20;;;;;;5004937;28;20053;-79
2022/01/30 13:34:21;;;;;;;30.25;21.60;;;18.00;40.70;;;;;;5020728;28;20068;-79
2022/01/30 13:36:54;;;;;;;28.10;19.80;;;17.60;40.70;;;;;;5019573;28;20030;-79
2022/01/30 13:39:33;;;;;;;29.77;21.48;;;17.10;41.70;;;;;;5006856;28;20026;-80
2022/01/30 13:43:04;;;;;;;31.38;20.20;;;16.80;42.50;;;;;;5001528;28;20034;-80
2022/01/30 13:48:05;;;;;;;27.55;19.70;;;16.00;45.00;;;;;;5019722;28;20044;-79